EDDG/FMO METAR and TAF weather

Enter ICAO airport designator
Station Type Date Time Source
EDDG METAR 2021/02/25 16:50 UTC NOAA

EDDG 251650Z 24003KT CAVOK 14/08 Q1026 NOSIG


Station Type Date Time Source
EDDG Decoded METAR 2021/02/25 16:50 UTC NOAA

Muenster / Osnabrueck, Germany (EDDG) 52-08N 007-42E 53M
Feb 25, 2021 - 11:50 AM EST / 2021.02.25 1650 UTC
Wind: from the WSW (240 degrees) at 3 MPH (3 KT):0
Visibility: greater than 7 mile(s):0
Temperature: 57 F (14 C)
Dew Point: 46 F (8 C)
Relative Humidity: 67%
Pressure (altimeter): 30.30 in. Hg (1026 hPa)
ob: EDDG 251650Z 24003KT CAVOK 14/08 Q1026 NOSIG
cycle: 17

Station Type Date Time Source
EDDG TAF 2021/02/25 12:27 UTC NOAA

TAF EDDG 251100Z 2512/2612 25005KT CAVOK
BECMG 2518/2521 33004KT
TEMPO 2522/2603 4000 -RA BR BKN010

Example: see airport list